sensor_id;sensor_type;location;lat;lon;timestamp;temperature;humidity
35541;DHT22;21650;48.840;9.162;2022-07-21T00:01:03;20.50;99.90
35541;DHT22;21650;48.840;9.162;2022-07-21T00:03:28;20.30;99.90
35541;DHT22;21650;48.840;9.162;2022-07-21T00:05:54;20.30;99.90
35541;DHT22;21650;48.840;9.162;2022-07-21T00:08:20;20.50;99.90
35541;DHT22;21650;48.840;9.162;2022-07-21T00:10:46;20.60;99.90
35541;DHT22;21650;48.840;9.162;2022-07-21T00:13:12;20.80;99.90
35541;DHT22;21650;48.840;9.162;2022-07-21T00:15:37;20.90;99.90
35541;DHT22;21650;48.840;9.162;2022-07-21T00:18:03;20.90;99.90
35541;DHT22;21650;48.840;9.162;2022-07-21T00:20:30;20.70;99.90
35541;DHT22;21650;48.840;9.162;2022-07-21T00:22:56;20.40;99.90
35541;DHT22;21650;48.840;9.162;2022-07-21T00:25:22;20.30;99.90
35541;DHT22;21650;48.840;9.162;2022-07-21T00:27:48;20.50;99.90
35541;DHT22;21650;48.840;9.162;2022-07-21T00:30:15;20.60;99.90
35541;DHT22;21650;48.840;9.162;2022-07-21T00:32:41;20.50;99.90
35541;DHT22;21650;48.840;9.162;2022-07-21T00:35:08;20.50;99.90
35541;DHT22;21650;48.840;9.162;2022-07-21T00:37:35;20.50;99.90
35541;DHT22;21650;48.840;9.162;2022-07-21T00:40:01;20.70;99.90
35541;DHT22;21650;48.840;9.162;2022-07-21T00:42:28;20.80;99.90
35541;DHT22;21650;48.840;9.162;2022-07-21T00:44:55;20.70;99.90
35541;DHT22;21650;48.840;9.162;2022-07-21T00:47:22;20.60;99.90
35541;DHT22;21650;48.840;9.162;2022-07-21T00:49:48;20.50;99.90
35541;DHT22;21650;48.840;9.162;2022-07-21T00:52:14;20.40;99.90
35541;DHT22;21650;48.840;9.162;2022-07-21T00:54:40;20.50;99.90
35541;DHT22;21650;48.840;9.162;2022-07-21T00:57:06;20.70;99.90
35541;DHT22;21650;48.840;9.162;2022-07-21T00:59:32;20.80;99.90
35541;DHT22;21650;48.840;9.162;2022-07-21T01:01:58;20.80;99.90
35541;DHT22;21650;48.840;9.162;2022-07-21T01:04:24;20.60;99.90
35541;DHT22;21650;48.840;9.162;2022-07-21T01:06:53;20.60;99.90
35541;DHT22;21650;48.840;9.162;2022-07-21T01:09:19;20.40;99.90
35541;DHT22;21650;48.840;9.162;2022-07-21T01:11:45;20.40;99.90
35541;DHT22;21650;48.840;9.162;2022-07-21T01:14:11;20.40;99.90
35541;DHT22;21650;48.840;9.162;2022-07-21T01:16:37;20.30;99.90
35541;DHT22;21650;48.840;9.162;2022-07-21T01:19:05;20.30;99.90
35541;DHT22;21650;48.840;9.162;2022-07-21T01:21:35;20.30;99.90
35541;DHT22;21650;48.840;9.162;2022-07-21T01:24:01;20.30;99.90
35541;DHT22;21650;48.840;9.162;2022-07-21T01:26:28;20.30;99.90
35541;DHT22;21650;48.840;9.162;2022-07-21T01:28:55;20.20;99.90
35541;DHT22;21650;48.840;9.162;2022-07-21T01:31:22;20.10;99.90
35541;DHT22;21650;48.840;9.162;2022-07-21T01:33:48;20.30;99.90
35541;DHT22;21650;48.840;9.162;2022-07-21T01:36:14;20.40;99.90
35541;DHT22;21650;48.840;9.162;2022-07-21T01:38:40;20.20;99.90
35541;DHT22;21650;48.840;9.162;2022-07-21T01:41:24;20.00;99.90
35541;DHT22;21650;48.840;9.162;2022-07-21T01:44:03;20.00;99.90
35541;DHT22;21650;48.840;9.162;2022-07-21T01:46:33;20.10;99.90
35541;DHT22;21650;48.840;9.162;2022-07-21T01:48:59;20.10;99.90
35541;DHT22;21650;48.840;9.162;2022-07-21T01:51:25;19.90;99.90
35541;DHT22;21650;48.840;9.162;2022-07-21T01:53:51;19.90;99.90
35541;DHT22;21650;48.840;9.162;2022-07-21T01:56:23;19.90;99.90
35541;DHT22;21650;48.840;9.162;2022-07-21T01:58:51;20.00;99.90
35541;DHT22;21650;48.840;9.162;2022-07-21T02:01:18;20.30;99.90
35541;DHT22;21650;48.840;9.162;2022-07-21T02:03:44;20.50;99.90
35541;DHT22;21650;48.840;9.162;2022-07-21T02:06:11;20.70;99.90
35541;DHT22;21650;48.840;9.162;2022-07-21T02:08:37;20.80;99.90
35541;DHT22;21650;48.840;9.162;2022-07-21T02:11:04;20.90;99.90
35541;DHT22;21650;48.840;9.162;2022-07-21T02:13:30;20.90;99.90
35541;DHT22;21650;48.840;9.162;2022-07-21T02:15:56;21.00;99.90
35541;DHT22;21650;48.840;9.162;2022-07-21T02:18:22;21.00;99.90
35541;DHT22;21650;48.840;9.162;2022-07-21T02:20:47;21.00;99.90
35541;DHT22;21650;48.840;9.162;2022-07-21T02:23:14;21.00;99.90
35541;DHT22;21650;48.840;9.162;2022-07-21T02:25:40;21.00;99.90
35541;DHT22;21650;48.840;9.162;2022-07-21T02:28:06;20.90;99.90
35541;DHT22;21650;48.840;9.162;2022-07-21T02:30:31;20.80;99.90
35541;DHT22;21650;48.840;9.162;2022-07-21T02:32:57;20.80;99.90
35541;DHT22;21650;48.840;9.162;2022-07-21T02:35:23;20.90;99.90
35541;DHT22;21650;48.840;9.162;2022-07-21T02:37:48;20.90;99.90
35541;DHT22;21650;48.840;9.162;2022-07-21T02:40:14;20.80;99.90
35541;DHT22;21650;48.840;9.162;2022-07-21T02:42:40;20.80;99.90
35541;DHT22;21650;48.840;9.162;2022-07-21T02:45:06;21.00;99.90
35541;DHT22;21650;48.840;9.162;2022-07-21T02:47:32;21.00;99.90
35541;DHT22;21650;48.840;9.162;2022-07-21T02:49:58;20.80;99.90
35541;DHT22;21650;48.840;9.162;2022-07-21T02:52:24;20.90;99.90
35541;DHT22;21650;48.840;9.162;2022-07-21T02:54:49;21.00;99.90
35541;DHT22;21650;48.840;9.162;2022-07-21T02:57:15;21.00;99.90
35541;DHT22;21650;48.840;9.162;2022-07-21T02:59:40;21.10;99.90
35541;DHT22;21650;48.840;9.162;2022-07-21T03:02:06;21.10;99.90
35541;DHT22;21650;48.840;9.162;2022-07-21T03:04:32;21.10;99.90
35541;DHT22;21650;48.840;9.162;2022-07-21T03:06:57;21.10;99.90
35541;DHT22;21650;48.840;9.162;2022-07-21T03:09:23;21.10;99.90
35541;DHT22;21650;48.840;9.162;2022-07-21T03:11:48;21.10;99.90
35541;DHT22;21650;48.840;9.162;2022-07-21T03:14:14;21.10;99.90
35541;DHT22;21650;48.840;9.162;2022-07-21T03:16:39;21.10;99.90
35541;DHT22;21650;48.840;9.162;2022-07-21T03:19:05;21.10;99.90
35541;DHT22;21650;48.840;9.162;2022-07-21T03:21:31;21.00;99.90
35541;DHT22;21650;48.840;9.162;2022-07-21T03:23:56;20.90;99.90
35541;DHT22;21650;48.840;9.162;2022-07-21T03:26:22;20.80;99.90
35541;DHT22;21650;48.840;9.162;2022-07-21T03:28:48;20.80;99.90
35541;DHT22;21650;48.840;9.162;2022-07-21T03:31:14;20.90;99.90
35541;DHT22;21650;48.840;9.162;2022-07-21T03:33:40;20.80;99.90
35541;DHT22;21650;48.840;9.162;2022-07-21T03:36:05;20.40;99.90
35541;DHT22;21650;48.840;9.162;2022-07-21T03:38:32;20.30;99.90
35541;DHT22;21650;48.840;9.162;2022-07-21T03:40:58;20.50;99.90
35541;DHT22;21650;48.840;9.162;2022-07-21T03:43:23;20.50;99.90
35541;DHT22;21650;48.840;9.162;2022-07-21T03:45:49;20.40;99.90
35541;DHT22;21650;48.840;9.162;2022-07-21T03:48:14;20.30;99.90
35541;DHT22;21650;48.840;9.162;2022-07-21T03:50:41;20.30;99.90
35541;DHT22;21650;48.840;9.162;2022-07-21T03:53:08;20.30;99.90
35541;DHT22;21650;48.840;9.162;2022-07-21T03:55:34;20.50;99.90
35541;DHT22;21650;48.840;9.162;2022-07-21T03:58:03;20.50;99.90
35541;DHT22;21650;48.840;9.162;2022-07-21T04:00:41;20.60;99.90
35541;DHT22;21650;48.840;9.162;2022-07-21T04:03:08;20.60;99.90
35541;DHT22;21650;48.840;9.162;2022-07-21T04:05:34;20.70;99.90
35541;DHT22;21650;48.840;9.162;2022-07-21T04:08:01;20.70;99.90
35541;DHT22;21650;48.840;9.162;2022-07-21T04:10:30;20.80;99.90
35541;DHT22;21650;48.840;9.162;2022-07-21T04:12:58;20.80;99.90
35541;DHT22;21650;48.840;9.162;2022-07-21T04:15:24;20.90;99.90
35541;DHT22;21650;48.840;9.162;2022-07-21T04:17:50;20.90;99.90
35541;DHT22;21650;48.840;9.162;2022-07-21T04:20:16;21.00;99.90
35541;DHT22;21650;48.840;9.162;2022-07-21T04:22:43;20.80;99.90
35541;DHT22;21650;48.840;9.162;2022-07-21T04:25:09;20.40;99.90
35541;DHT22;21650;48.840;9.162;2022-07-21T04:27:36;20.30;99.90
35541;DHT22;21650;48.840;9.162;2022-07-21T04:30:04;20.40;99.90
35541;DHT22;21650;48.840;9.162;2022-07-21T04:32:31;20.50;99.90
35541;DHT22;21650;48.840;9.162;2022-07-21T04:34:56;20.50;99.90
35541;DHT22;21650;48.840;9.162;2022-07-21T04:37:22;20.60;99.90
35541;DHT22;21650;48.840;9.162;2022-07-21T04:39:48;20.60;99.90
35541;DHT22;21650;48.840;9.162;2022-07-21T04:42:14;20.50;99.90
35541;DHT22;21650;48.840;9.162;2022-07-21T04:44:40;20.50;99.90
35541;DHT22;21650;48.840;9.162;2022-07-21T04:47:05;20.20;99.90
35541;DHT22;21650;48.840;9.162;2022-07-21T04:49:31;20.10;99.90
35541;DHT22;21650;48.840;9.162;2022-07-21T04:51:57;20.30;99.90
35541;DHT22;21650;48.840;9.162;2022-07-21T04:54:23;20.50;99.90
35541;DHT22;21650;48.840;9.162;2022-07-21T04:56:48;20.50;99.90
35541;DHT22;21650;48.840;9.162;2022-07-21T04:59:14;20.40;99.90
35541;DHT22;21650;48.840;9.162;2022-07-21T05:01:40;20.40;99.90
35541;DHT22;21650;48.840;9.162;2022-07-21T05:04:06;20.40;99.90
35541;DHT22;21650;48.840;9.162;2022-07-21T05:06:32;20.50;99.90
35541;DHT22;21650;48.840;9.162;2022-07-21T05:08:58;20.40;99.90
35541;DHT22;21650;48.840;9.162;2022-07-21T05:11:24;20.50;99.90
35541;DHT22;21650;48.840;9.162;2022-07-21T05:13:50;20.40;99.90
35541;DHT22;21650;48.840;9.162;2022-07-21T05:16:16;20.30;99.90
35541;DHT22;21650;48.840;9.162;2022-07-21T05:18:42;20.10;99.90
35541;DHT22;21650;48.840;9.162;2022-07-21T05:21:08;20.00;99.90
35541;DHT22;21650;48.840;9.162;2022-07-21T05:23:33;20.10;99.90
35541;DHT22;21650;48.840;9.162;2022-07-21T05:25:59;20.30;99.90
35541;DHT22;21650;48.840;9.162;2022-07-21T05:28:27;20.40;99.90
35541;DHT22;21650;48.840;9.162;2022-07-21T05:30:53;20.30;99.90
35541;DHT22;21650;48.840;9.162;2022-07-21T05:33:19;20.40;99.90
35541;DHT22;21650;48.840;9.162;2022-07-21T05:35:45;20.50;99.90
35541;DHT22;21650;48.840;9.162;2022-07-21T05:38:10;20.40;99.90
35541;DHT22;21650;48.840;9.162;2022-07-21T05:40:36;20.50;99.90
35541;DHT22;21650;48.840;9.162;2022-07-21T05:43:02;20.50;99.90
35541;DHT22;21650;48.840;9.162;2022-07-21T05:45:28;20.50;99.90
35541;DHT22;21650;48.840;9.162;2022-07-21T05:47:53;20.70;99.90
35541;DHT22;21650;48.840;9.162;2022-07-21T05:50:19;20.70;99.90
35541;DHT22;21650;48.840;9.162;2022-07-21T05:52:44;20.80;99.90
35541;DHT22;21650;48.840;9.162;2022-07-21T05:55:12;20.80;99.90
35541;DHT22;21650;48.840;9.162;2022-07-21T05:57:38;21.00;99.90
35541;DHT22;21650;48.840;9.162;2022-07-21T06:00:05;21.10;99.90
35541;DHT22;21650;48.840;9.162;2022-07-21T06:02:31;20.90;99.90
35541;DHT22;21650;48.840;9.162;2022-07-21T06:04:57;21.00;99.90
35541;DHT22;21650;48.840;9.162;2022-07-21T06:07:22;21.10;99.90
35541;DHT22;21650;48.840;9.162;2022-07-21T06:09:48;21.40;99.90
35541;DHT22;21650;48.840;9.162;2022-07-21T06:12:14;21.50;99.90
35541;DHT22;21650;48.840;9.162;2022-07-21T06:14:40;21.60;99.90
35541;DHT22;21650;48.840;9.162;2022-07-21T06:17:06;21.60;99.90
35541;DHT22;21650;48.840;9.162;2022-07-21T06:19:31;21.80;99.90
35541;DHT22;21650;48.840;9.162;2022-07-21T06:21:57;21.90;99.90
35541;DHT22;21650;48.840;9.162;2022-07-21T06:24:24;22.00;99.90
35541;DHT22;21650;48.840;9.162;2022-07-21T06:26:52;22.20;99.90
35541;DHT22;21650;48.840;9.162;2022-07-21T06:29:21;22.20;99.90
35541;DHT22;21650;48.840;9.162;2022-07-21T06:31:47;22.00;99.90
35541;DHT22;21650;48.840;9.162;2022-07-21T06:34:13;21.40;99.90
35541;DHT22;21650;48.840;9.162;2022-07-21T06:36:39;21.30;99.90
35541;DHT22;21650;48.840;9.162;2022-07-21T06:39:05;21.20;99.90
35541;DHT22;21650;48.840;9.162;2022-07-21T06:41:31;21.00;99.90
35541;DHT22;21650;48.840;9.162;2022-07-21T06:43:56;21.10;99.90
35541;DHT22;21650;48.840;9.162;2022-07-21T06:46:22;21.10;99.90
35541;DHT22;21650;48.840;9.162;2022-07-21T06:48:48;21.20;99.90
35541;DHT22;21650;48.840;9.162;2022-07-21T06:51:13;21.10;99.90
35541;DHT22;21650;48.840;9.162;2022-07-21T06:53:39;21.30;99.90
35541;DHT22;21650;48.840;9.162;2022-07-21T06:56:07;21.50;99.90
35541;DHT22;21650;48.840;9.162;2022-07-21T06:58:33;21.60;99.90
35541;DHT22;21650;48.840;9.162;2022-07-21T07:00:59;21.60;99.90
35541;DHT22;21650;48.840;9.162;2022-07-21T07:03:25;21.60;99.90
35541;DHT22;21650;48.840;9.162;2022-07-21T07:05:51;21.50;99.90
35541;DHT22;21650;48.840;9.162;2022-07-21T07:08:16;21.50;99.90
35541;DHT22;21650;48.840;9.162;2022-07-21T07:10:43;21.70;99.90
35541;DHT22;21650;48.840;9.162;2022-07-21T07:13:09;21.80;99.90
35541;DHT22;21650;48.840;9.162;2022-07-21T07:15:35;21.80;99.90
35541;DHT22;21650;48.840;9.162;2022-07-21T07:18:01;21.90;99.90
35541;DHT22;21650;48.840;9.162;2022-07-21T07:20:27;21.90;99.90
35541;DHT22;21650;48.840;9.162;2022-07-21T07:22:52;22.00;99.90
35541;DHT22;21650;48.840;9.162;2022-07-21T07:25:18;22.10;99.90
35541;DHT22;21650;48.840;9.162;2022-07-21T07:27:49;22.10;99.90
35541;DHT22;21650;48.840;9.162;2022-07-21T07:30:16;22.40;99.90
35541;DHT22;21650;48.840;9.162;2022-07-21T07:32:43;22.70;99.90
35541;DHT22;21650;48.840;9.162;2022-07-21T07:46:39;23.30;99.90
35541;DHT22;21650;48.840;9.162;2022-07-21T07:59:30;22.70;99.90
35541;DHT22;21650;48.840;9.162;2022-07-21T10:03:47;27.50;95.40
35541;DHT22;21650;48.840;9.162;2022-07-21T10:06:23;26.50;96.60
35541;DHT22;21650;48.840;9.162;2022-07-21T10:08:49;25.40;99.70
35541;DHT22;21650;48.840;9.162;2022-07-21T10:11:24;25.10;99.90
35541;DHT22;21650;48.840;9.162;2022-07-21T10:13:51;24.60;99.90
35541;DHT22;21650;48.840;9.162;2022-07-21T10:16:39;24.50;99.90
35541;DHT22;21650;48.840;9.162;2022-07-21T10:19:32;24.40;99.90
35541;DHT22;21650;48.840;9.162;2022-07-21T10:26:28;25.60;99.90
35541;DHT22;21650;48.840;9.162;2022-07-21T10:28:59;26.20;99.90
35541;DHT22;21650;48.840;9.162;2022-07-21T10:35:34;26.40;99.00
35541;DHT22;21650;48.840;9.162;2022-07-21T10:48:01;27.10;97.20
35541;DHT22;21650;48.840;9.162;2022-07-21T10:50:40;27.30;97.20
35541;DHT22;21650;48.840;9.162;2022-07-21T10:53:18;27.60;96.80
35541;DHT22;21650;48.840;9.162;2022-07-21T10:55:49;27.90;96.70
35541;DHT22;21650;48.840;9.162;2022-07-21T11:03:42;27.40;95.30
35541;DHT22;21650;48.840;9.162;2022-07-21T11:08:52;27.70;94.50
35541;DHT22;21650;48.840;9.162;2022-07-21T11:11:26;27.70;96.80
35541;DHT22;21650;48.840;9.162;2022-07-21T11:14:14;28.00;92.50
35541;DHT22;21650;48.840;9.162;2022-07-21T11:19:06;28.40;93.60
35541;DHT22;21650;48.840;9.162;2022-07-21T11:21:32;28.60;91.30
35541;DHT22;21650;48.840;9.162;2022-07-21T11:23:57;28.00;91.90
35541;DHT22;21650;48.840;9.162;2022-07-21T11:26:26;27.30;92.90
35541;DHT22;21650;48.840;9.162;2022-07-21T11:29:05;27.20;92.90
35541;DHT22;21650;48.840;9.162;2022-07-21T11:31:31;27.00;95.10
35541;DHT22;21650;48.840;9.162;2022-07-21T11:33:57;27.10;94.20
35541;DHT22;21650;48.840;9.162;2022-07-21T11:36:29;27.10;94.90
35541;DHT22;21650;48.840;9.162;2022-07-21T11:39:14;27.10;93.00
35541;DHT22;21650;48.840;9.162;2022-07-21T11:41:41;27.20;94.10
35541;DHT22;21650;48.840;9.162;2022-07-21T11:44:09;27.90;93.00
35541;DHT22;21650;48.840;9.162;2022-07-21T11:47:03;28.10;94.80
35541;DHT22;21650;48.840;9.162;2022-07-21T11:49:29;28.70;91.40
35541;DHT22;21650;48.840;9.162;2022-07-21T11:52:00;27.60;90.40
35541;DHT22;21650;48.840;9.162;2022-07-21T11:54:42;26.90;90.50
35541;DHT22;21650;48.840;9.162;2022-07-21T11:57:09;26.90;91.50
35541;DHT22;21650;48.840;9.162;2022-07-21T11:59:35;27.10;93.10
35541;DHT22;21650;48.840;9.162;2022-07-21T12:04:52;27.10;93.50
35541;DHT22;21650;48.840;9.162;2022-07-21T12:07:21;27.40;93.70
35541;DHT22;21650;48.840;9.162;2022-07-21T12:09:53;27.40;92.20
35541;DHT22;21650;48.840;9.162;2022-07-21T12:12:34;27.30;93.40
35541;DHT22;21650;48.840;9.162;2022-07-21T12:17:47;26.60;93.30
35541;DHT22;21650;48.840;9.162;2022-07-21T12:20:14;26.60;93.70
35541;DHT22;21650;48.840;9.162;2022-07-21T12:22:45;26.40;94.70
35541;DHT22;21650;48.840;9.162;2022-07-21T12:25:17;26.20;94.20
35541;DHT22;21650;48.840;9.162;2022-07-21T12:27:45;26.50;95.00
35541;DHT22;21650;48.840;9.162;2022-07-21T12:30:33;27.00;94.80
35541;DHT22;21650;48.840;9.162;2022-07-21T12:33:09;26.90;94.00
35541;DHT22;21650;48.840;9.162;2022-07-21T12:35:38;27.30;93.90
35541;DHT22;21650;48.840;9.162;2022-07-21T12:38:09;27.40;93.40
35541;DHT22;21650;48.840;9.162;2022-07-21T12:40:37;27.20;93.20
35541;DHT22;21650;48.840;9.162;2022-07-21T12:43:10;27.60;94.10
35541;DHT22;21650;48.840;9.162;2022-07-21T12:46:00;27.90;92.30
35541;DHT22;21650;48.840;9.162;2022-07-21T12:48:31;27.90;92.10
35541;DHT22;21650;48.840;9.162;2022-07-21T12:51:21;27.70;92.90
35541;DHT22;21650;48.840;9.162;2022-07-21T12:53:49;27.80;93.10
35541;DHT22;21650;48.840;9.162;2022-07-21T12:56:17;27.10;93.10
35541;DHT22;21650;48.840;9.162;2022-07-21T12:58:43;26.70;93.50
35541;DHT22;21650;48.840;9.162;2022-07-21T13:01:09;26.60;94.10
35541;DHT22;21650;48.840;9.162;2022-07-21T13:03:36;26.80;94.40
35541;DHT22;21650;48.840;9.162;2022-07-21T13:06:03;27.30;93.80
35541;DHT22;21650;48.840;9.162;2022-07-21T13:08:29;27.00;93.90
35541;DHT22;21650;48.840;9.162;2022-07-21T13:10:55;27.10;93.40
35541;DHT22;21650;48.840;9.162;2022-07-21T13:13:21;27.10;93.40
35541;DHT22;21650;48.840;9.162;2022-07-21T13:15:46;27.70;93.10
35541;DHT22;21650;48.840;9.162;2022-07-21T13:18:12;27.70;91.90
35541;DHT22;21650;48.840;9.162;2022-07-21T13:20:38;28.10;91.70
35541;DHT22;21650;48.840;9.162;2022-07-21T13:23:04;28.30;92.20
35541;DHT22;21650;48.840;9.162;2022-07-21T13:25:30;28.10;91.60
35541;DHT22;21650;48.840;9.162;2022-07-21T13:27:55;27.10;92.30
35541;DHT22;21650;48.840;9.162;2022-07-21T13:30:21;27.00;92.90
35541;DHT22;21650;48.840;9.162;2022-07-21T13:32:47;27.50;91.90
35541;DHT22;21650;48.840;9.162;2022-07-21T13:35:13;27.70;91.70
35541;DHT22;21650;48.840;9.162;2022-07-21T13:37:39;27.90;91.00
35541;DHT22;21650;48.840;9.162;2022-07-21T13:40:05;27.80;91.50
35541;DHT22;21650;48.840;9.162;2022-07-21T13:42:31;27.80;91.10
35541;DHT22;21650;48.840;9.162;2022-07-21T13:44:57;28.40;90.70
35541;DHT22;21650;48.840;9.162;2022-07-21T13:47:22;28.40;90.50
35541;DHT22;21650;48.840;9.162;2022-07-21T13:49:48;28.40;88.40
35541;DHT22;21650;48.840;9.162;2022-07-21T13:52:13;28.90;87.00
35541;DHT22;21650;48.840;9.162;2022-07-21T13:54:39;29.30;85.30
35541;DHT22;21650;48.840;9.162;2022-07-21T13:57:05;29.20;84.20
35541;DHT22;21650;48.840;9.162;2022-07-21T13:59:31;29.00;86.20
35541;DHT22;21650;48.840;9.162;2022-07-21T14:01:56;29.30;85.60
35541;DHT22;21650;48.840;9.162;2022-07-21T14:04:22;29.40;83.10
35541;DHT22;21650;48.840;9.162;2022-07-21T14:06:48;29.70;86.70
35541;DHT22;21650;48.840;9.162;2022-07-21T14:09:15;29.90;82.40
35541;DHT22;21650;48.840;9.162;2022-07-21T14:11:42;29.50;80.20
35541;DHT22;21650;48.840;9.162;2022-07-21T14:14:07;29.90;82.20
35541;DHT22;21650;48.840;9.162;2022-07-21T14:16:58;29.80;79.50
35541;DHT22;21650;48.840;9.162;2022-07-21T14:19:24;29.40;80.80
35541;DHT22;21650;48.840;9.162;2022-07-21T14:21:50;29.20;78.90
35541;DHT22;21650;48.840;9.162;2022-07-21T14:24:16;28.80;81.10
35541;DHT22;21650;48.840;9.162;2022-07-21T14:27:00;28.60;82.10
35541;DHT22;21650;48.840;9.162;2022-07-21T14:29:26;28.70;80.30
35541;DHT22;21650;48.840;9.162;2022-07-21T14:31:52;28.20;81.80
35541;DHT22;21650;48.840;9.162;2022-07-21T14:34:18;28.10;80.40
35541;DHT22;21650;48.840;9.162;2022-07-21T14:36:43;27.90;86.70
35541;DHT22;21650;48.840;9.162;2022-07-21T14:39:19;27.80;85.30
35541;DHT22;21650;48.840;9.162;2022-07-21T14:41:57;27.70;85.20
35541;DHT22;21650;48.840;9.162;2022-07-21T14:44:23;27.60;85.20
35541;DHT22;21650;48.840;9.162;2022-07-21T14:46:52;27.50;84.60
35541;DHT22;21650;48.840;9.162;2022-07-21T14:49:52;27.90;85.90
35541;DHT22;21650;48.840;9.162;2022-07-21T14:52:51;28.20;86.40
35541;DHT22;21650;48.840;9.162;2022-07-21T14:55:17;28.40;86.60
35541;DHT22;21650;48.840;9.162;2022-07-21T14:57:43;28.60;85.20
35541;DHT22;21650;48.840;9.162;2022-07-21T15:00:10;28.60;84.00
35541;DHT22;21650;48.840;9.162;2022-07-21T15:02:36;29.00;83.60
35541;DHT22;21650;48.840;9.162;2022-07-21T15:05:03;29.50;83.00
35541;DHT22;21650;48.840;9.162;2022-07-21T15:07:29;29.30;81.20
35541;DHT22;21650;48.840;9.162;2022-07-21T15:09:55;29.40;80.20
35541;DHT22;21650;48.840;9.162;2022-07-21T15:12:21;29.50;82.00
35541;DHT22;21650;48.840;9.162;2022-07-21T15:14:47;29.70;79.70
35541;DHT22;21650;48.840;9.162;2022-07-21T15:17:13;29.90;79.50
35541;DHT22;21650;48.840;9.162;2022-07-21T15:19:41;29.90;79.40
35541;DHT22;21650;48.840;9.162;2022-07-21T15:22:07;29.90;77.90
35541;DHT22;21650;48.840;9.162;2022-07-21T15:24:34;30.20;78.70
35541;DHT22;21650;48.840;9.162;2022-07-21T15:27:00;29.80;77.50
35541;DHT22;21650;48.840;9.162;2022-07-21T15:29:26;29.20;78.90
35541;DHT22;21650;48.840;9.162;2022-07-21T15:31:51;28.60;79.50
35541;DHT22;21650;48.840;9.162;2022-07-21T15:34:17;28.50;80.50
35541;DHT22;21650;48.840;9.162;2022-07-21T15:36:43;28.60;81.00
35541;DHT22;21650;48.840;9.162;2022-07-21T15:39:09;28.80;81.20
35541;DHT22;21650;48.840;9.162;2022-07-21T15:41:37;28.90;78.70
35541;DHT22;21650;48.840;9.162;2022-07-21T15:44:04;29.50;79.00
35541;DHT22;21650;48.840;9.162;2022-07-21T15:46:30;30.10;79.30
35541;DHT22;21650;48.840;9.162;2022-07-21T15:48:56;29.60;76.30
35541;DHT22;21650;48.840;9.162;2022-07-21T15:51:22;29.40;78.40
35541;DHT22;21650;48.840;9.162;2022-07-21T15:53:47;29.50;80.90
35541;DHT22;21650;48.840;9.162;2022-07-21T15:56:14;29.20;77.70
35541;DHT22;21650;48.840;9.162;2022-07-21T15:58:40;29.40;78.90
35541;DHT22;21650;48.840;9.162;2022-07-21T16:01:26;30.00;78.70
35541;DHT22;21650;48.840;9.162;2022-07-21T16:03:52;30.00;76.90
35541;DHT22;21650;48.840;9.162;2022-07-21T16:06:18;30.10;78.30
35541;DHT22;21650;48.840;9.162;2022-07-21T16:08:44;29.70;74.00
35541;DHT22;21650;48.840;9.162;2022-07-21T16:11:10;29.40;76.50
35541;DHT22;21650;48.840;9.162;2022-07-21T16:13:35;29.90;79.00
35541;DHT22;21650;48.840;9.162;2022-07-21T16:16:01;30.20;77.60
35541;DHT22;21650;48.840;9.162;2022-07-21T16:18:27;30.50;72.90
35541;DHT22;21650;48.840;9.162;2022-07-21T16:20:52;30.50;73.30
35541;DHT22;21650;48.840;9.162;2022-07-21T16:23:18;30.60;73.40
35541;DHT22;21650;48.840;9.162;2022-07-21T16:25:44;31.00;73.70
35541;DHT22;21650;48.840;9.162;2022-07-21T16:28:09;30.80;73.50
35541;DHT22;21650;48.840;9.162;2022-07-21T16:30:35;30.70;72.80
35541;DHT22;21650;48.840;9.162;2022-07-21T16:33:00;30.30;71.40
35541;DHT22;21650;48.840;9.162;2022-07-21T16:35:26;30.10;72.40
35541;DHT22;21650;48.840;9.162;2022-07-21T16:37:51;30.70;75.30
35541;DHT22;21650;48.840;9.162;2022-07-21T16:40:18;31.00;71.90
35541;DHT22;21650;48.840;9.162;2022-07-21T16:42:46;30.20;70.50
35541;DHT22;21650;48.840;9.162;2022-07-21T16:45:12;30.20;71.90
35541;DHT22;21650;48.840;9.162;2022-07-21T16:47:37;30.30;71.80
35541;DHT22;21650;48.840;9.162;2022-07-21T16:50:03;30.30;72.10
35541;DHT22;21650;48.840;9.162;2022-07-21T16:52:29;30.40;72.60
35541;DHT22;21650;48.840;9.162;2022-07-21T16:54:54;30.80;71.70
35541;DHT22;21650;48.840;9.162;2022-07-21T16:57:20;30.50;71.70
35541;DHT22;21650;48.840;9.162;2022-07-21T16:59:45;30.50;72.00
35541;DHT22;21650;48.840;9.162;2022-07-21T17:02:11;30.10;71.20
35541;DHT22;21650;48.840;9.162;2022-07-21T17:04:36;30.00;72.40
35541;DHT22;21650;48.840;9.162;2022-07-21T17:07:02;30.00;71.90
35541;DHT22;21650;48.840;9.162;2022-07-21T17:09:28;29.80;74.30
35541;DHT22;21650;48.840;9.162;2022-07-21T17:11:53;29.30;72.00
35541;DHT22;21650;48.840;9.162;2022-07-21T17:14:19;28.80;73.80
35541;DHT22;21650;48.840;9.162;2022-07-21T17:16:44;28.90;75.00
35541;DHT22;21650;48.840;9.162;2022-07-21T17:19:10;29.00;73.20
35541;DHT22;21650;48.840;9.162;2022-07-21T17:21:35;28.80;73.60
35541;DHT22;21650;48.840;9.162;2022-07-21T17:24:01;28.90;73.90
35541;DHT22;21650;48.840;9.162;2022-07-21T17:26:26;28.70;73.60
35541;DHT22;21650;48.840;9.162;2022-07-21T17:28:52;28.40;75.00
35541;DHT22;21650;48.840;9.162;2022-07-21T17:31:17;28.30;76.00
35541;DHT22;21650;48.840;9.162;2022-07-21T17:33:43;28.30;76.80
35541;DHT22;21650;48.840;9.162;2022-07-21T17:36:08;28.70;76.90
35541;DHT22;21650;48.840;9.162;2022-07-21T17:38:34;28.80;75.70
35541;DHT22;21650;48.840;9.162;2022-07-21T17:41:00;28.20;75.70
35541;DHT22;21650;48.840;9.162;2022-07-21T17:43:27;28.40;79.20
35541;DHT22;21650;48.840;9.162;2022-07-21T17:45:53;28.20;78.10
35541;DHT22;21650;48.840;9.162;2022-07-21T17:48:18;28.20;76.90
35541;DHT22;21650;48.840;9.162;2022-07-21T17:50:44;27.70;77.40
35541;DHT22;21650;48.840;9.162;2022-07-21T17:53:09;27.80;78.00
35541;DHT22;21650;48.840;9.162;2022-07-21T17:55:35;27.80;78.60
35541;DHT22;21650;48.840;9.162;2022-07-21T17:58:00;27.80;78.50
35541;DHT22;21650;48.840;9.162;2022-07-21T18:00:44;27.50;78.70
35541;DHT22;21650;48.840;9.162;2022-07-21T18:03:10;27.50;79.30
35541;DHT22;21650;48.840;9.162;2022-07-21T18:05:35;27.30;79.90
35541;DHT22;21650;48.840;9.162;2022-07-21T18:08:01;27.10;80.80
35541;DHT22;21650;48.840;9.162;2022-07-21T18:10:27;27.10;81.50
35541;DHT22;21650;48.840;9.162;2022-07-21T18:12:52;27.00;81.40
35541;DHT22;21650;48.840;9.162;2022-07-21T18:15:18;26.90;81.50
35541;DHT22;21650;48.840;9.162;2022-07-21T18:17:44;26.80;83.10
35541;DHT22;21650;48.840;9.162;2022-07-21T18:20:09;26.80;83.50
35541;DHT22;21650;48.840;9.162;2022-07-21T18:22:35;26.60;83.10
35541;DHT22;21650;48.840;9.162;2022-07-21T18:25:01;26.50;83.90
35541;DHT22;21650;48.840;9.162;2022-07-21T18:27:27;26.40;84.00
35541;DHT22;21650;48.840;9.162;2022-07-21T18:29:52;26.20;84.50